createdAt,value
2016-09-26T20:03:34.159Z,22.70
2016-09-26T20:04:20.000Z,22.85
2016-09-26T20:09:12.659Z,22.63
2016-09-26T20:14:08.753Z,22.47
2016-09-26T20:19:04.740Z,19.27
2016-09-26T20:24:00.254Z,17.15
2016-09-26T20:28:55.926Z,16.17
2016-09-26T20:33:51.684Z,15.72
2016-09-26T20:38:47.553Z,15.47
2016-09-26T20:43:43.848Z,15.27
2016-09-26T20:48:40.474Z,15.04
2016-09-26T20:53:37.461Z,14.81
2016-09-26T20:58:33.811Z,14.68
2016-09-26T21:03:30.253Z,14.55
2016-09-26T21:08:27.864Z,14.59
2016-09-26T21:13:24.111Z,14.53
2016-09-26T21:18:21.246Z,14.35
2016-09-26T21:23:17.525Z,14.41
2016-09-26T21:28:14.351Z,14.36
2016-09-26T21:33:10.898Z,14.33
2016-09-26T21:38:07.500Z,14.32
2016-09-26T21:43:03.929Z,14.32
2016-09-26T21:48:00.840Z,14.20
2016-09-26T21:52:56.998Z,14.12
2016-09-26T21:57:53.890Z,14.35
2016-09-26T22:02:50.486Z,14.45
2016-09-26T22:07:46.733Z,14.50
2016-09-26T22:12:43.742Z,14.45
2016-09-26T22:17:40.492Z,14.45
2016-09-26T22:22:37.205Z,14.47
2016-09-26T22:27:33.740Z,14.23
2016-09-26T22:32:30.327Z,14.30
2016-09-26T22:37:29.055Z,14.29
2016-09-26T22:42:25.491Z,14.30
2016-09-26T22:47:21.956Z,14.33
2016-09-26T22:52:18.926Z,14.26
2016-09-26T22:57:15.400Z,14.18
2016-09-26T23:02:11.593Z,14.25
2016-09-26T23:07:08.157Z,14.22
2016-09-26T23:12:04.885Z,14.18
2016-09-26T23:17:01.688Z,13.99
2016-09-26T23:21:58.255Z,14.11
2016-09-26T23:26:55.589Z,14.07
2016-09-26T23:31:52.604Z,14.14
2016-09-26T23:36:49.442Z,14.04
2016-09-26T23:41:45.969Z,14.11
2016-09-26T23:46:42.841Z,13.90
2016-09-26T23:51:39.372Z,14.11
2016-09-26T23:56:36.329Z,13.99
